I-5 : North of SR-12 Atmospheric Data: 03/22/2019 Summary  Detailed Graphs  Station List

  Temperature     Wind Precipitation Visibility
Timestamp Air Wet
Bulb
Dew-
point
24-hr
Max
24-hr
Min
Relative
Humidity
Atmospheric
Pressure
Avg
Speed
Avg
Dir
Spot
Speed
Spot
Dir
Max
Speed
Max
Dir
  Rate Situation Start End 1 hr 3 hr 6 hr 12 hr 24 hr   Situation
Date Time °F °F °F °F °F % in Hg mph ° mph ° mph ° Y/N in/hr text Date Time Date Time in in in in in mi text
03/22/2019 12:01 AM 51.26 47.30 43.52 65.66 44.24 76.0 x 2.68 S 2.46 S 6.71 S No 0.000 No Precipitation 03/20/2019 09:33 AM 03/20/2019 10:03 AM 0.000 0.000 0.000 0.000 0.000 1.24 Clear
03/22/2019 12:11 AM 50.54 46.58 42.80 65.66 44.24 75.0 x 5.82 SW 5.59 SW 8.72 SW No 0.000 No Precipitation 03/20/2019 09:33 AM 03/20/2019 10:03 AM 0.000 0.000 0.000 0.000 0.000 1.24 Clear
03/22/2019 12:21 AM 50.00 46.22 42.62 65.66 44.24 76.0 x 7.16 SW 5.82 SW 10.74 SW No 0.000 No Precipitation 03/20/2019 09:33 AM 03/20/2019 10:03 AM 0.000 0.000 0.000 0.000 0.000 1.24 Clear
03/22/2019 12:41 AM 48.38 45.50 42.62 65.66 44.24 80.0 x 7.83 SW 8.05 SW 10.74 SW No 0.000 No Precipitation 03/20/2019 09:33 AM 03/20/2019 10:03 AM 0.000 0.000 0.000 0.000 0.000 1.24 Clear
03/22/2019 01:01 AM 49.28 46.58 44.06 65.66 44.24 82.0 x 8.28 SW 8.72 SW 13.42 SW No 0.000 No Precipitation 03/20/2019 09:33 AM 03/20/2019 10:03 AM 0.000 0.000 0.000 0.000 0.000 1.24 Clear
03/22/2019 01:21 AM 48.56 46.22 43.88 65.66 44.24 84.0 x 7.38 SW 8.28 SW 9.84 SW No 0.000 No Precipitation 03/20/2019 09:33 AM 03/20/2019 10:03 AM 0.000 0.000 0.000 0.000 0.000 1.24 Clear
03/22/2019 02:01 AM 48.56 46.58 44.42 65.66 44.24 86.0 x 7.61 SW 5.37 SW 10.51 SW No 0.000 No Precipitation 03/20/2019 09:33 AM 03/20/2019 10:03 AM 0.000 0.000 0.000 0.000 0.000 1.24 Clear
03/22/2019 02:11 AM 48.74 46.94 44.96 65.66 44.24 87.0 x 8.28 SW 12.53 SW 12.08 SW No 0.000 No Precipitation 03/20/2019 09:33 AM 03/20/2019 10:03 AM 0.000 0.000 0.000 0.000 0.000 1.24 Clear
03/22/2019 02:21 AM 48.74 46.94 45.14 65.66 44.24 87.0 x 9.62 SW 12.30 W 12.97 SW No 0.000 No Precipitation 03/20/2019 09:33 AM 03/20/2019 10:03 AM 0.000 0.000 0.000 0.000 0.000 1.24 Clear
03/22/2019 02:31 AM 48.92 47.12 45.32 65.66 44.24 87.0 x 8.95 SW 9.17 W 14.32 SW No 0.000 No Precipitation 03/20/2019 09:33 AM 03/20/2019 10:03 AM 0.000 0.000 0.000 0.000 0.000 1.24 Clear
03/22/2019 02:51 AM 48.20 46.40 44.78 65.66 44.24 88.0 x 7.61 SW 7.16 SW 9.84 W No 0.000 No Precipitation 03/20/2019 09:33 AM 03/20/2019 10:03 AM 0.000 0.000 0.000 0.000 0.000 1.24 Clear
03/22/2019 03:01 AM 48.02 46.22 44.60 65.66 44.24 88.0 x 6.26 SW 5.59 SW 8.50 W No 0.000 No Precipitation 03/20/2019 09:33 AM 03/20/2019 10:03 AM 0.000 0.000 0.000 0.000 0.000 1.24 Clear
03/22/2019 03:11 AM 47.48 45.86 44.42 65.66 44.24 90.0 x 5.14 W 5.59 W 7.38 SW No 0.000 No Precipitation 03/20/2019 09:33 AM 03/20/2019 10:03 AM 0.000 0.000 0.000 0.000 0.000 1.24 Clear
03/22/2019 03:21 AM 47.66 46.22 44.78 65.66 44.24 90.0 x 3.36 SW 4.03 SW 6.71 W No 0.000 No Precipitation 03/20/2019 09:33 AM 03/20/2019 10:03 AM 0.000 0.000 0.000 0.000 0.000 1.24 Clear
03/22/2019 03:31 AM 48.02 46.40 44.78 65.66 44.24 89.0 x 2.91 SW 2.68 SW 6.04 W No 0.000 No Precipitation 03/20/2019 09:33 AM 03/20/2019 10:03 AM 0.000 0.000 0.000 0.000 0.000 1.24 Clear
03/22/2019 03:42 AM 48.02 46.40 44.78 65.66 44.24 89.0 x 2.91 SW 2.01 SW 5.14 S No 0.000 No Precipitation 03/20/2019 09:33 AM 03/20/2019 10:03 AM 0.000 0.000 0.000 0.000 0.000 1.24 Clear
03/22/2019 03:51 AM 47.66 46.22 44.60 65.66 44.24 89.0 x 2.46 S 3.58 S 4.47 SW No 0.000 No Precipitation 03/20/2019 09:33 AM 03/20/2019 10:03 AM 0.000 0.000 0.000 0.000 0.000 1.24 Clear
03/22/2019 04:01 AM 47.48 45.86 44.60 65.66 44.24 90.0 x 2.91 S 3.13 S 5.37 SW No 0.000 No Precipitation 03/20/2019 09:33 AM 03/20/2019 10:03 AM 0.000 0.000 0.000 0.000 0.000 1.24 Clear
03/22/2019 04:12 AM 45.68 44.60 43.52 65.66 44.24 92.0 x 3.80 SE 3.58 SE 5.37 SE No 0.000 No Precipitation 03/20/2019 09:33 AM 03/20/2019 10:03 AM 0.000 0.000 0.000 0.000 0.000 1.24 Clear
03/22/2019 04:21 AM 45.50 44.42 42.80 65.66 44.24 91.0 x 2.91 S 2.91 SE 6.49 SE No 0.000 No Precipitation 03/20/2019 09:33 AM 03/20/2019 10:03 AM 0.000 0.000 0.000 0.000 0.000 1.24 Clear
03/22/2019 04:31 AM 44.60 43.34 42.26 65.66 44.24 92.0 x 4.70 SE 4.47 SE 5.82 SE No 0.000 No Precipitation 03/20/2019 09:33 AM 03/20/2019 10:03 AM 0.000 0.000 0.000 0.000 0.000 1.24 Clear
03/22/2019 04:42 AM 43.70 42.98 41.72 65.66 43.70 93.0 x 4.47 SE 4.47 SE 4.92 SE No 0.000 No Precipitation 03/20/2019 09:33 AM 03/20/2019 10:03 AM 0.000 0.000 0.000 0.000 0.000 1.24 Clear
03/22/2019 04:51 AM 44.06 42.98 41.90 65.66 43.70 92.0 x 3.80 SE 3.80 SE 6.26 SE No 0.000 No Precipitation 03/20/2019 09:33 AM 03/20/2019 10:03 AM 0.000 0.000 0.000 0.000 0.000 1.24 Clear
03/22/2019 05:01 AM 43.52 42.62 41.54 65.66 43.52 93.0 x 4.25 SE 4.70 SE 4.70 SE No 0.000 No Precipitation 03/20/2019 09:33 AM 03/20/2019 10:03 AM 0.000 0.000 0.000 0.000 0.000 1.24 Clear
03/22/2019 05:11 AM 43.88 42.80 41.54 65.66 43.52 91.0 x 3.58 E 4.25 E 6.26 SE No 0.000 No Precipitation 03/20/2019 09:33 AM 03/20/2019 10:03 AM 0.000 0.000 0.000 0.000 0.000 1.24 Clear
03/22/2019 05:21 AM 43.70 42.44 41.18 65.66 43.52 91.0 x 2.46 E 2.01 E 5.37 E No 0.000 No Precipitation 03/20/2019 09:33 AM 03/20/2019 10:03 AM 0.000 0.000 0.000 0.000 0.000 1.24 Clear
03/22/2019 05:31 AM 42.62 41.54 40.46 65.66 42.62 93.0 x 0.00 N 0.00 N 2.46 SE No 0.000 No Precipitation 03/20/2019 09:33 AM 03/20/2019 10:03 AM 0.000 0.000 0.000 0.000 0.000 1.24 Clear
03/22/2019 05:51 AM 42.62 41.90 41.00 65.66 42.08 94.0 x 3.36 E 3.80 E 10.74 SE No 0.000 No Precipitation 03/20/2019 09:33 AM 03/20/2019 10:03 AM 0.000 0.000 0.000 0.000 0.000 1.24 Clear
03/22/2019 06:01 AM 43.70 42.80 41.72 65.66 42.08 93.0 x 2.91 E 3.13 E 5.37 E No 0.000 No Precipitation 03/20/2019 09:33 AM 03/20/2019 10:03 AM 0.000 0.000 0.000 0.000 0.000 1.24 Clear
03/22/2019 06:11 AM 42.62 41.72 40.82 65.66 42.08 93.0 x 3.13 E 4.03 E 5.37 E No 0.000 No Precipitation 03/20/2019 09:33 AM 03/20/2019 10:03 AM 0.000 0.000 0.000 0.000 0.000 1.24 Clear
03/22/2019 06:21 AM 42.98 41.90 41.18 65.66 42.08 94.0 x 3.58 SE 4.03 SE 5.14 E No 0.000 No Precipitation 03/20/2019 09:33 AM 03/20/2019 10:03 AM 0.000 0.000 0.000 0.000 0.000 1.24 Clear
03/22/2019 06:42 AM 42.44 42.08 40.64 65.66 42.08 94.0 x 2.01 E 2.68 SE 5.14 E No 0.000 No Precipitation 03/20/2019 09:33 AM 03/20/2019 10:03 AM 0.000 0.000 0.000 0.000 0.000 1.24 Clear
03/22/2019 06:51 AM 44.06 43.34 42.08 65.66 42.08 92.0 x 3.80 SE 3.58 E 4.25 SE No 0.000 No Precipitation 03/20/2019 09:33 AM 03/20/2019 10:03 AM 0.000 0.000 0.000 0.000 0.000 1.24 Clear
03/22/2019 07:01 AM 44.24 43.16 42.08 65.66 42.08 92.0 x 3.13 SE 2.91 SE 4.03 E No 0.000 No Precipitation 03/20/2019 09:33 AM 03/20/2019 10:03 AM 0.000 0.000 0.000 0.000 0.000 1.24 Clear
03/22/2019 07:11 AM 45.14 44.06 42.98 65.66 42.08 92.0 x 2.91 E 2.68 SE 4.70 E No 0.000 No Precipitation 03/20/2019 09:33 AM 03/20/2019 10:03 AM 0.000 0.000 0.000 0.000 0.000 1.24 Clear
03/22/2019 07:21 AM 45.32 44.06 42.80 65.66 42.08 91.0 x 5.14 SE 5.37 SE 7.38 SE No 0.000 No Precipitation 03/20/2019 09:33 AM 03/20/2019 10:03 AM 0.000 0.000 0.000 0.000 0.000 1.24 Clear
03/22/2019 07:31 AM 45.14 43.88 42.80 65.66 42.08 92.0 x 5.59 SE 4.70 SE 7.38 SE No 0.000 No Precipitation 03/20/2019 09:33 AM 03/20/2019 10:03 AM 0.000 0.000 0.000 0.000 0.000 1.24 Clear
03/22/2019 07:41 AM 44.96 43.88 42.62 65.66 42.08 92.0 x 5.59 SE 5.14 SE 6.71 SE No 0.000 No Precipitation 03/20/2019 09:33 AM 03/20/2019 10:03 AM 0.000 0.000 0.000 0.000 0.000 1.24 Clear
03/22/2019 08:01 AM 45.68 44.60 43.34 65.66 42.08 91.0 x 4.92 SE 5.14 SE 7.38 SE No 0.000 No Precipitation 03/20/2019 09:33 AM 03/20/2019 10:03 AM 0.000 0.000 0.000 0.000 0.000 1.24 Clear
03/22/2019 08:21 AM 46.22 44.78 43.34 65.66 42.08 90.0 x 4.70 SE 5.14 E 6.04 E No 0.000 No Precipitation 03/20/2019 09:33 AM 03/20/2019 10:03 AM 0.000 0.000 0.000 0.000 0.000 1.24 Clear
03/22/2019 08:31 AM 46.76 45.32 43.70 65.66 42.08 88.0 x 5.37 E 5.37 E 6.93 E No 0.000 No Precipitation 03/20/2019 09:33 AM 03/20/2019 10:03 AM 0.000 0.000 0.000 0.000 0.000 1.24 Clear
03/22/2019 08:51 AM 47.30 45.68 44.06 65.66 42.08 88.0 x 3.58 E 3.58 E 5.82 E No 0.000 No Precipitation 03/20/2019 09:33 AM 03/20/2019 10:03 AM 0.000 0.000 0.000 0.000 0.000 1.24 Clear
03/22/2019 09:21 AM 48.02 46.40 44.42 65.66 42.08 88.0 x 2.01 E 2.01 E 5.82 E No 0.000 No Precipitation 03/20/2019 09:33 AM 03/20/2019 10:03 AM 0.000 0.000 0.000 0.000 0.000 1.24 Clear
03/22/2019 09:31 AM 48.20 46.40 44.42 65.66 42.08 87.0 x 2.68 SE 3.13 SE 4.25 SE No 0.000 No Precipitation 03/20/2019 09:33 AM 03/20/2019 10:03 AM 0.000 0.000 0.000 0.000 0.000 1.24 Clear
03/22/2019 09:41 AM 48.74 46.94 44.96 65.66 42.08 87.0 x 1.79 SE 1.34 S 5.59 SE No 0.000 No Precipitation 03/20/2019 09:33 AM 03/20/2019 10:03 AM 0.000 0.000 0.000 0.000 0.000 1.24 Clear
03/22/2019 09:51 AM 49.28 47.12 44.78 65.66 42.08 84.0 x 2.46 S 1.12 W 6.26 S No 0.000 No Precipitation 03/20/2019 09:33 AM 03/20/2019 10:03 AM 0.000 0.000 0.000 0.000 0.000 1.24 Clear
03/22/2019 10:01 AM 49.64 47.30 44.96 65.66 42.08 84.0 x 2.24 S 1.79 SW 6.93 S No 0.000 No Precipitation 03/20/2019 09:33 AM 03/20/2019 10:03 AM 0.000 0.000 0.000 0.000 0.000 1.24 Clear
03/22/2019 10:11 AM 50.00 47.12 44.60 65.66 42.08 82.0 x 1.57 SE 0.00 SE 4.92 S No 0.000 No Precipitation 03/20/2019 09:33 AM 03/20/2019 10:03 AM 0.000 0.000 0.000 0.000 0.000 1.24 Clear
03/22/2019 10:21 AM 50.36 48.20 46.40 65.66 42.08 86.0 x 2.24 S 2.91 W 6.49 SW No 0.000 No Precipitation 03/20/2019 09:33 AM 03/20/2019 10:03 AM 0.000 0.000 0.000 0.000 0.000 1.24 Clear
03/22/2019 10:32 AM 50.90 48.20 45.86 65.66 42.08 82.0 x 3.13 S 3.80 S 7.61 S No 0.000 No Precipitation 03/20/2019 09:33 AM 03/20/2019 10:03 AM 0.000 0.000 0.000 0.000 0.000 1.24 Clear
03/22/2019 10:51 AM 51.44 48.38 45.68 65.66 42.08 81.0 x 2.01 E 1.12 E 3.80 E No 0.000 No Precipitation 03/20/2019 09:33 AM 03/20/2019 10:03 AM 0.000 0.000 0.000 0.000 0.000 1.24 Clear
03/22/2019 11:01 AM 52.16 49.28 46.40 65.66 42.08 81.0 x 2.46 SE 2.24 S 4.25 SE No 0.000 No Precipitation 03/20/2019 09:33 AM 03/20/2019 10:03 AM 0.000 0.000 0.000 0.000 0.000 1.24 Clear
03/22/2019 11:11 AM 52.16 49.10 46.04 65.66 42.08 81.0 x 3.80 SE 3.36 SE 8.28 SE No 0.000 No Precipitation 03/20/2019 09:33 AM 03/20/2019 10:03 AM 0.000 0.000 0.000 0.000 0.000 1.24 Clear
03/22/2019 11:51 AM 54.32 50.54 46.94 65.66 42.08 76.0 x 2.01 E 1.79 NE 4.25 E Yes 0.000 No Precipitation 03/22/2019 10:29 AM   0.000 0.000 0.000 0.000 0.000 1.24 Clear
03/22/2019 12:01 PM 56.48 51.62 48.02 65.66 42.08 72.0 x 3.58 SE 3.13 S 7.83 SE No 0.000 No Precipitation 03/22/2019 10:29 AM 03/22/2019 10:51 AM 0.000 0.000 0.000 0.000 0.000 1.24 Clear
03/22/2019 12:12 PM 54.50 50.00 46.22 65.66 42.08 74.0 x 3.36 SE 2.01 SE 6.49 S No 0.000 No Precipitation 03/22/2019 10:29 AM 03/22/2019 10:51 AM 0.000 0.000 0.000 0.000 0.000 1.24 Clear
03/22/2019 12:41 PM 56.12 50.72 45.86 65.66 42.08 69.0 x 3.58 S 3.13 S 7.61 S No 0.000 No Precipitation 03/22/2019 10:29 AM 03/22/2019 10:51 AM 0.000 0.000 0.000 0.000 0.000 1.24 Clear
03/22/2019 12:51 PM 57.02 50.72 45.14 65.66 42.08 65.0 x 4.03 S 7.38 S 8.50 SE No 0.000 No Precipitation 03/22/2019 10:29 AM 03/22/2019 10:51 AM 0.000 0.000 0.000 0.000 0.000 1.24 Clear
03/22/2019 01:21 PM 57.38 51.44 46.22 65.66 42.08 66.0 x 4.70 SE 4.92 SE 8.28 SE No 0.000 No Precipitation 03/22/2019 10:29 AM 03/22/2019 10:51 AM 0.000 0.000 0.000 0.000 0.000 1.24 Clear
03/22/2019 01:31 PM 57.20 51.08 45.32 65.66 42.08 65.0 x 3.13 SE 4.47 SE 9.62 S No 0.000 No Precipitation 03/22/2019 10:29 AM 03/22/2019 10:51 AM 0.000 0.000 0.000 0.000 0.000 1.24 Clear
03/22/2019 01:41 PM 57.02 50.72 45.32 65.66 42.08 65.0 x 5.37 SE 4.92 E 9.84 S No 0.000 No Precipitation 03/22/2019 10:29 AM 03/22/2019 10:51 AM 0.000 0.000 0.000 0.000 0.000 1.24 Clear
03/22/2019 01:51 PM 57.56 51.26 45.68 65.66 42.08 64.0 x 3.36 E 5.14 SE 7.38 SE No 0.000 No Precipitation 03/22/2019 10:29 AM 03/22/2019 10:51 AM 0.000 0.000 0.000 0.000 0.000 1.24 Clear
03/22/2019 02:11 PM 57.92 51.08 46.40 65.66 42.08 64.0 x 5.14 SE 1.34 SE 7.16 E No 0.000 No Precipitation 03/22/2019 10:29 AM 03/22/2019 10:51 AM 0.000 0.000 0.000 0.000 0.000 1.24 Clear
03/22/2019 02:21 PM 57.56 51.08 46.22 65.66 42.08 65.0 x 3.58 SE 2.91 E 7.16 SE No 0.000 No Precipitation 03/22/2019 10:29 AM 03/22/2019 10:51 AM 0.000 0.000 0.000 0.000 0.000 1.24 Clear
03/22/2019 02:31 PM 58.28 51.98 46.58 65.66 42.08 66.0 x 5.37 SE 4.70 SE 8.05 SE Yes 0.000 Rain Slight 03/22/2019 01:23 PM   0.000 0.000 0.000 0.000 0.000 1.24 Clear
03/22/2019 02:41 PM 58.28 51.62 45.86 65.66 42.08 63.0 x 3.13 SE 2.01 SE 6.71 SE Yes 0.000 No Precipitation 03/22/2019 01:23 PM   0.000 0.000 0.000 0.000 0.000 1.24 Clear
03/22/2019 03:11 PM 59.54 51.80 45.50 65.66 42.08 60.0 x 6.93 E 6.26 E 9.40 NE No 0.000 No Precipitation 03/22/2019 01:23 PM 03/22/2019 01:51 PM 0.000 0.000 0.000 0.000 0.000 1.24 Clear
03/22/2019 03:42 PM 60.98 51.80 44.60 65.66 42.08 52.0 x 4.25 E 4.92 NE 8.95 E No 0.000 No Precipitation 03/22/2019 01:23 PM 03/22/2019 01:51 PM 0.000 0.000 0.000 0.000 0.000 1.24 Clear
03/22/2019 04:11 PM 61.16 51.44 42.08 65.66 42.08 50.0 x 6.49 E 3.58 E 9.62 E No 0.000 No Precipitation 03/22/2019 01:23 PM 03/22/2019 01:51 PM 0.000 0.000 0.000 0.000 0.000 1.24 Clear
03/22/2019 05:21 PM 60.80 53.24 46.76 65.66 42.08 61.0 x 2.91 SW 2.24 SW 6.49 SW Yes 0.000 Rain Slight 03/22/2019 04:07 PM   0.000 0.000 0.000 0.000 0.000 1.24 Clear
03/22/2019 05:41 PM 59.18 53.78 49.46 65.66 42.08 71.0 x 3.80 SW 4.47 SW 7.61 SW Yes 0.000 Rain Slight 03/22/2019 04:07 PM   0.004 0.004 0.004 0.004 0.004 1.24 Clear
03/22/2019 05:51 PM 58.82 53.78 49.82 65.66 42.08 73.0 x 3.58 W 3.80 W 6.49 W Yes 0.001 Rain Slight 03/22/2019 04:07 PM   0.004 0.004 0.004 0.004 0.004 1.24 Clear
03/22/2019 06:01 PM 58.46 54.14 50.90 65.66 42.08 76.0 x 2.68 SW 3.13 SW 6.04 W Yes 0.000 Rain Slight 03/22/2019 04:07 PM   0.004 0.004 0.008 0.008 0.008 1.24 Clear
03/22/2019 06:21 PM 57.74 53.96 51.08 65.30 42.08 79.0 x 4.47 W 5.82 W 7.61 SW Yes 0.000 Rain Slight 03/22/2019 04:07 PM   0.004 0.008 0.008 0.008 0.008 1.24 Clear
03/22/2019 06:31 PM 57.20 53.24 50.00 64.76 42.08 77.0 x 4.92 SW 6.26 SW 8.95 S Yes 0.000 Rain Slight 03/22/2019 04:07 PM   0.004 0.008 0.008 0.008 0.008 1.24 Clear
03/22/2019 07:11 PM 56.48 52.88 50.18 63.32 42.08 80.0 x 2.24 W 1.79 SW 4.25 S Yes 0.000 No Precipitation 03/22/2019 04:07 PM   0.004 0.008 0.008 0.012 0.012 1.24 Clear
03/22/2019 07:31 PM 56.12 53.06 50.72 62.06 42.08 82.0 x 1.57 W 2.68 SW 4.25 SW Yes 0.000 No Precipitation 03/22/2019 04:07 PM   0.004 0.012 0.012 0.012 0.012 1.24 Clear
03/22/2019 08:21 PM 55.22 53.06 51.44 61.70 42.08 87.0 x 1.34 N 0.00 N 2.46 NE Yes 0.000 Rain Slight 03/22/2019 07:00 PM   0.008 0.016 0.016 0.016 0.016 1.24 Clear
03/22/2019 08:51 PM 55.04 52.88 50.90 61.70 42.08 86.0 x 1.79 W 2.91 NW 4.03 W Yes 0.000 No Precipitation 03/22/2019 07:00 PM   0.008 0.016 0.020 0.020 0.020 1.24 Clear
03/22/2019 09:01 PM 54.86 52.88 51.26 61.70 42.08 88.0 x 3.13 NW 2.91 W 5.14 NW No 0.000 No Precipitation 03/22/2019 07:00 PM 03/22/2019 08:00 PM 0.008 0.016 0.020 0.020 0.020 1.24 Clear
03/22/2019 09:11 PM 54.50 52.88 51.62 61.70 42.08 90.0 x 3.58 NW 3.58 NW 6.04 W No 0.000 No Precipitation 03/22/2019 07:00 PM 03/22/2019 08:00 PM 0.004 0.012 0.020 0.020 0.020 1.24 Clear
03/22/2019 09:21 PM 54.50 52.88 51.62 61.70 42.08 90.0 x 3.36 NW 4.25 NW 6.26 NW No 0.000 No Precipitation 03/22/2019 07:00 PM 03/22/2019 08:00 PM 0.004 0.012 0.020 0.020 0.020 1.24 Clear
03/22/2019 09:31 PM 54.32 52.70 51.44 61.70 42.08 90.0 x 4.92 NW 7.16 NW 7.16 NW Yes 0.001 Rain Slight 03/22/2019 08:26 PM   0.004 0.012 0.020 0.020 0.020 1.24 Clear
03/22/2019 09:41 PM 54.14 52.52 51.26 61.70 42.08 91.0 x 6.49 NW 8.28 NW 9.17 NW Yes 0.000 No Precipitation 03/22/2019 08:26 PM   0.004 0.012 0.020 0.024 0.024 1.24 Clear
03/22/2019 09:51 PM 53.42 51.80 50.72 61.70 42.08 91.0 x 7.38 NW 6.49 NW 11.18 NW No 0.000 No Precipitation 03/22/2019 08:26 PM 03/22/2019 08:48 PM 0.000 0.012 0.020 0.024 0.024 1.24 Clear
03/22/2019 10:02 PM 53.06 51.80 50.90 61.70 42.08 92.0 x 7.61 NW 8.50 NW 10.51 NW No 0.000 No Precipitation 03/22/2019 08:26 PM 03/22/2019 08:48 PM 0.000 0.012 0.020 0.024 0.024 1.24 Clear
03/22/2019 10:22 PM 52.88 51.26 49.82 61.70 42.08 89.0 x 5.59 NW 5.59 NW 8.72 NW No 0.000 No Precipitation 03/22/2019 08:26 PM 03/22/2019 08:48 PM 0.000 0.012 0.020 0.024 0.024 1.24 Clear
03/22/2019 10:31 PM 52.70 51.08 49.82 61.70 42.08 90.0 x 4.47 NW 2.01 N 8.72 NW No 0.000 No Precipitation 03/22/2019 08:26 PM 03/22/2019 08:48 PM 0.000 0.012 0.020 0.024 0.024 1.24 Clear
03/22/2019 10:42 PM 52.52 51.26 50.18 61.70 42.08 92.0 x 6.71 N 6.04 N 9.17 N No 0.000 No Precipitation 03/22/2019 08:26 PM 03/22/2019 08:48 PM 0.000 0.012 0.020 0.024 0.024 1.24 Clear
03/22/2019 10:52 PM 52.52 51.08 49.64 61.70 42.08 91.0 x 7.16 N 7.16 N 8.72 N No 0.000 No Precipitation 03/22/2019 08:26 PM 03/22/2019 08:48 PM 0.000 0.012 0.020 0.024 0.024 1.24 Clear
03/22/2019 11:01 PM 52.52 51.26 50.18 61.70 42.08 92.0 x 5.37 N 4.70 N 8.28 N No 0.000 No Precipitation 03/22/2019 08:26 PM 03/22/2019 08:48 PM 0.000 0.012 0.020 0.024 0.024 1.24 Clear
03/22/2019 11:41 PM 53.24 51.26 49.82 61.70 42.08 89.0 x 7.16 NE 7.16 NE 9.17 NE Yes 0.002 Rain Slight 03/22/2019 10:25 PM   0.008 0.008 0.024 0.028 0.028 1.24 Clear
03/22/2019 11:52 PM 52.88 51.44 50.00 61.70 42.08 91.0 x 9.17 NE 7.61 NE 11.86 NE Yes 0.001 Rain Slight 03/22/2019 10:25 PM   0.012 0.012 0.028 0.035 0.035 1.24 Clear